N7612J KSAN-KSNA
Flight info
| Callsign | N7612J |
|---|---|
| Flight time | N/A |
| Altitude | 6000 |
| Route | OCN V23 SLI |
| Aircraft | SR22/L-G/L |
Departure
| Time | 2026-04-20 02:01 |
|---|---|
| Airport | San Diego International Airport (KSAN) |
Arrival
| Time | N/A |
|---|---|
| Airport | John Wayne Orange County International Airport (KSNA) |
| Time | Latitude | Longitude | Altitude | Speed | Heading |
|---|---|---|---|---|---|
| 2026-04-20 01:51 | 32.73360 | -117.17885 | 22 ft | 0 kts | 17° |
| 2026-04-20 01:58 | 32.73388 | -117.17905 | 22 ft | 16 kts | 284° |
| 2026-04-20 01:58 | 32.73334 | -117.18024 | 19 ft | 14 kts | 206° |
| 2026-04-20 01:58 | 32.73295 | -117.17941 | 20 ft | 20 kts | 108° |
| 2026-04-20 01:58 | 32.73255 | -117.17769 | 22 ft | 15 kts | 103° |
| 2026-04-20 01:59 | 32.73198 | -117.17675 | 23 ft | 19 kts | 150° |
| 2026-04-20 01:59 | 32.73118 | -117.17576 | 23 ft | 11 kts | 144° |
| 2026-04-20 01:59 | 32.73105 | -117.17564 | 23 ft | 0 kts | 147° |
| 2026-04-20 02:00 | 32.73102 | -117.17561 | 23 ft | 6 kts | 149° |
| 2026-04-20 02:00 | 32.73032 | -117.17614 | 23 ft | 19 kts | 276° |
| 2026-04-20 02:00 | 32.73102 | -117.17926 | 19 ft | 59 kts | 285° |
| 2026-04-20 02:00 | 32.73249 | -117.18519 | 127 ft | 86 kts | 283° |
| 2026-04-20 02:01 | 32.73459 | -117.19164 | 456 ft | 89 kts | 296° |
| 2026-04-20 02:01 | 32.73888 | -117.19635 | 767 ft | 94 kts | 320° |
| 2026-04-20 02:01 | 32.74466 | -117.20126 | 921 ft | 111 kts | 320° |
| 2026-04-20 02:01 | 32.75100 | -117.20677 | 1061 ft | 116 kts | 321° |
| 2026-04-20 02:02 | 32.75289 | -117.20843 | 1092 ft | 117 kts | 321° |
| 2026-04-20 02:02 | 32.75803 | -117.21294 | 1179 ft | 119 kts | 321° |
| 2026-04-20 02:02 | 32.76422 | -117.21841 | 1440 ft | 109 kts | 320° |
| 2026-04-20 02:02 | 32.77000 | -117.22347 | 1753 ft | 99 kts | 321° |
| 2026-04-20 02:03 | 32.77548 | -117.22831 | 2021 ft | 97 kts | 321° |
| 2026-04-20 02:03 | 32.78083 | -117.23311 | 2263 ft | 98 kts | 321° |
| 2026-04-20 02:03 | 32.78404 | -117.23602 | 2407 ft | 98 kts | 321° |